Anderson Acres, Nevada
Current Conditions -  °F | °C
As of 11:15 AM on Monday 20 Oct 2014 (Local Time) from KRTS Reporting Station
Broken Clouds Broken Clouds  
Wind Chill: 66°   Ceiling: 11000
Heat Index: 66°   Visibility: 10mi
Dew Point: 30°   Wind: 28mph
Humidity: 26%   Direction: 230°SW
Pressure: 29.97"   Gusts: 33mph
Location:  39.7378°N, 119.889°W
Report Text: KRTS 201815Z AUTO 23024G29KT 10SM BKN110 19/M01 A2997 RMK AO2
Loading
Personal Weather Stations






























Interactive Weather Map New forecast layout! Learn more

10-Day Weather Forecast

Advertisements
Track Severe Weather on mobile